Terminal Aerodrome Forecast
Issued by NWS Pocatello, ID

Home | Current Version | Previous Version | Text Only | Print | Product List | Glossary On
Versions: 1 2 3 4 5 6 7 8 9 10 11 12
000
FTUS45 KPIH 051720
TAFPIH
TAF
KPIH 051720Z 0518/0618 36007KT P6SM FEW120 BKN250
     FM052000 18015G25KT P6SM SCT250
     FM060500 16010KT P6SM VCSH BKN100 BKN180
     FM060900 03008KT P6SM SCT100 BKN160=

USA.gov is the U.S. government's official web portal to all federal, state and local government web resources and services.